Airfield :







YOU CAN JOIN US ON...

 
LOGIN :

Register | Disclaimer

   EN    FR    IT 

 









Legend :    VFR   Marginal VFR   IFR   Intensive IFR   Very Intensive IFR
Visi :
Ceiling :
>= 8 km
>= 3000ft
5 to 8 km
1000 to 3000 ft
1500m to 5 km
500 to 1000 ft
800 to 1500m
200 to 500 ft
< 800m
< 200 ft
Symbols :   Thunderstorms  Fog  Heavy snow  Heavy precipitations  Wind > 20 kt







- Airport Elevation : 38 ft
- IATA code : YMH


CYMH - Mary's Harbour

CURRENT METAR :
  • 161318Z AUTO 33009KT 6SM BR BKN013 OVC025 09/08 A2981 RMK SLP096

EXPIRED METARs :
  • 161316Z AUTO 33009KT 5SM BR BKN013 OVC025 09/08 A2981 RMK SLP096
  • 161300Z AUTO 34010KT 3SM -RA BR BKN013 OVC025 09/08 A2981 RMK SLP095
  • 161252Z AUTO 34008KT 4SM -RA BR BKN010 OVC013 09/08 A2980 RMK SLP094
  • 161247Z AUTO 33009G16KT 4SM BR BKN010 OVC013 09/08 A2980 RMK SLP094
  • 161237Z AUTO 33011G17KT 3SM -RA BR OVC009 09/08 A2980 RMK SLP092
  • 161222Z AUTO 34007KT 2 1/2SM -RA BR BKN007 BKN012 OVC016 09/09 A2980 RMK SLP093
  • 161217Z AUTO 34006KT 2SM -RA BR BKN007 BKN012 OVC017 09/09 A2980 RMK VIS VRB 1 1/2-3 SLP093
  • 161205Z AUTO 34007KT 300V010 2SM -RA BR BKN010 OVC017 09/08 A2980 RMK SLP093
  • 161151Z AUTO 35008KT 2 1/2SM -RA BR BKN010 OVC017 09/08 A2980 RMK SLP092
  • 161138Z AUTO 34009KT 3SM -RA BR OVC010 09/08 A2980 RMK SLP092
  • 161123Z AUTO 36007KT 3SM -RA BR BKN008 BKN014 OVC018 09/08 A2979 RMK SLP091
  • 161113Z AUTO 35007KT 330V040 2SM -RA BR BKN008 OVC014 09/08 A2979 RMK SLP090
  • 161101Z AUTO 36008KT 3SM -RA BR BKN008 OVC015 09/08 A2979 RMK SLP089

TAF TAF CYMH
Valid from the 16 at 14:00 until the 17 at 02:00 UTC


161338Z 1614/1702 33010KT 6SM BR SCT008 OVC015
TEMPO 1614/1618 3SM -SHRA BR BKN008 OVC015
FM161800 34012G22KT 5SM -SHRA BR OVC015
TEMPO 1618/1702 P6SM -SHRA OVC025
BECMG 1622/1624 34020G30KT RMK FCST BASED ON AUTO OBS. NXT FCST BY 162000Z
No reported NOTAMs for that airfield.



MET'MAP, your aeronautical weather chart ! - Copyright ORBIFLY December 2007 - Disclaimer

ORBIFLY MET'MAP TEAM :

Programming & Development : Alexandra Zaïnal
Concept & Development : Baudouin d'Aumeries
Co-Development & Prog : Marc-Olivier Méhu
Technical & hardware support : Manuel Goepfert

Contact : metmap@orbifly.com




SOURCES & CREDITS :

   NOAA